Time;durP1;ratioP1;P1;durP2;ratioP2;P2;SDS_P1;SDS_P2;PMS_P1;PMS_P2;Temp;Humidity;BMP_temperature;BMP_pressure;BME280_temperature;BME280_humidity;BME280_pressure;Samples;Min_cycle;Max_cycle;Signal;HPM_P1;HPM_P2
2021/12/31 00:02:34;;;;;;;57.13;28.52;;;;;;;;;;6370870;27;20047;-66
2021/12/31 00:05:37;;;;;;;65.32;30.40;;;;;;;;;;6352796;27;20047;-67
2021/12/31 00:08:40;;;;;;;59.10;27.60;;;;;;;;;;6370396;27;20050;-67
2021/12/31 00:11:43;;;;;;;60.15;29.50;;;;;;;;;;6370157;27;20051;-66
2021/12/31 00:14:47;;;;;;;53.08;26.38;;;;;;;;;;6369559;27;20051;-67
2021/12/31 00:17:52;;;;;;;48.22;25.48;;;;;;;;;;6351580;27;20664;-67
2021/12/31 00:20:56;;;;;;;47.53;26.15;;;;;;;;;;6335105;27;20049;-66
2021/12/31 00:23:59;;;;;;;42.53;24.42;;;;;;;;;;6351832;27;20405;-66
2021/12/31 00:27:04;;;;;;;51.25;25.58;;;;;;;;;;6386689;27;20122;-66
2021/12/31 00:30:11;;;;;;;48.97;25.73;;;;;;;;;;6351698;27;20047;-66
2021/12/31 00:33:15;;;;;;;57.20;28.87;;;;;;;;;;6370935;27;20041;-66
2021/12/31 00:36:17;;;;;;;51.25;27.02;;;;;;;;;;6370528;27;20283;-66
2021/12/31 00:39:20;;;;;;;50.95;25.90;;;;;;;;;;6370206;27;20035;-66
2021/12/31 00:42:23;;;;;;;57.22;28.58;;;;;;;;;;6369426;27;20111;-66
2021/12/31 00:45:28;;;;;;;25.23;14.02;;;;;;;;;;6351790;27;20043;-65
2021/12/31 00:48:31;;;;;;;30.20;16.95;;;;;;;;;;6351800;27;20054;-65
2021/12/31 00:51:36;;;;;;;23.73;13.02;;;;;;;;;;6351263;27;20055;-67
2021/12/31 00:54:39;;;;;;;38.47;17.08;;;;;;;;;;6350852;27;20050;-66
2021/12/31 00:57:43;;;;;;;34.33;18.13;;;;;;;;;;6370039;27;20047;-67
2021/12/31 01:00:49;;;;;;;46.10;25.67;;;;;;;;;;6351627;27;20126;-66
2021/12/31 01:03:53;;;;;;;50.90;27.40;;;;;;;;;;6369430;27;20059;-67
2021/12/31 01:06:58;;;;;;;57.90;27.75;;;;;;;;;;6351181;27;20050;-66
2021/12/31 01:10:02;;;;;;;48.03;26.02;;;;;;;;;;6351164;27;20043;-66
2021/12/31 01:13:10;;;;;;;53.00;27.63;;;;;;;;;;6369044;27;20051;-67
2021/12/31 01:16:14;;;;;;;48.63;26.38;;;;;;;;;;6350471;27;20050;-67
2021/12/31 01:22:38;;;;;;;54.50;28.50;;;;;;;;;;6368855;27;20099;-67
2021/12/31 01:25:43;;;;;;;60.05;29.75;;;;;;;;;;6349868;27;20492;-68
2021/12/31 01:28:48;;;;;;;47.95;26.90;;;;;;;;;;6350495;27;20046;-67
2021/12/31 01:31:55;;;;;;;53.67;28.40;;;;;;;;;;6369192;27;20039;-67
2021/12/31 01:34:58;;;;;;;57.38;29.48;;;;;;;;;;6350111;27;20477;-67
2021/12/31 01:38:00;;;;;;;56.97;28.83;;;;;;;;;;6368127;27;20051;-67
2021/12/31 01:41:06;;;;;;;54.55;28.77;;;;;;;;;;6368925;27;20055;-67
2021/12/31 01:44:09;;;;;;;49.85;28.58;;;;;;;;;;6350048;27;20496;-67
2021/12/31 01:47:17;;;;;;;49.67;26.90;;;;;;;;;;6368319;27;20043;-67
2021/12/31 01:50:20;;;;;;;45.90;27.23;;;;;;;;;;6368456;27;20127;-67
2021/12/31 01:53:23;;;;;;;46.22;26.48;;;;;;;;;;6368317;27;20043;-67
2021/12/31 01:56:28;;;;;;;59.58;31.42;;;;;;;;;;6349449;27;20051;-67
2021/12/31 01:59:31;;;;;;;52.22;28.73;;;;;;;;;;6349120;27;20080;-67
2021/12/31 02:02:35;;;;;;;47.83;26.58;;;;;;;;;;6368663;27;20061;-68
2021/12/31 02:05:39;;;;;;;42.97;26.45;;;;;;;;;;6349452;27;20336;-67
2021/12/31 02:08:42;;;;;;;52.05;27.98;;;;;;;;;;6349113;27;20079;-67
2021/12/31 02:11:45;;;;;;;50.63;27.83;;;;;;;;;;6349697;27;20571;-67
2021/12/31 02:14:49;;;;;;;50.55;28.25;;;;;;;;;;6368526;27;20054;-67
2021/12/31 02:17:53;;;;;;;47.72;27.05;;;;;;;;;;6348316;27;20042;-67
2021/12/31 02:20:58;;;;;;;48.38;28.20;;;;;;;;;;6367510;27;20045;-68
2021/12/31 02:24:05;;;;;;;51.17;28.77;;;;;;;;;;6350052;28;20039;-67
2021/12/31 02:27:08;;;;;;;42.30;25.65;;;;;;;;;;6367725;27;20493;-67
2021/12/31 02:30:12;;;;;;;54.30;28.50;;;;;;;;;;6367387;27;20046;-67
2021/12/31 02:33:14;;;;;;;48.67;28.20;;;;;;;;;;6367986;27;20050;-67
2021/12/31 02:36:19;;;;;;;52.97;27.98;;;;;;;;;;6349539;27;20051;-68
2021/12/31 02:39:22;;;;;;;50.15;26.73;;;;;;;;;;6348734;28;20043;-68
2021/12/31 02:42:25;;;;;;;44.85;25.30;;;;;;;;;;6367339;28;20140;-68
2021/12/31 02:45:31;;;;;;;49.15;25.90;;;;;;;;;;6349660;28;20130;-67
2021/12/31 02:48:34;;;;;;;59.13;28.35;;;;;;;;;;6367271;28;20054;-68
2021/12/31 02:51:41;;;;;;;48.03;26.00;;;;;;;;;;6367206;28;20177;-68
2021/12/31 02:54:46;;;;;;;44.63;25.25;;;;;;;;;;6367780;28;20051;-67
2021/12/31 02:57:52;;;;;;;37.55;23.80;;;;;;;;;;6349205;28;20045;-67
2021/12/31 03:00:55;;;;;;;50.30;25.15;;;;;;;;;;6348470;28;20051;-67
2021/12/31 03:03:58;;;;;;;39.33;23.23;;;;;;;;;;6349035;28;20053;-67
2021/12/31 03:07:04;;;;;;;43.72;24.52;;;;;;;;;;6367755;28;20045;-67
2021/12/31 03:10:08;;;;;;;49.40;23.60;;;;;;;;;;6366904;27;20050;-68
2021/12/31 03:13:15;;;;;;;40.80;22.60;;;;;;;;;;6353566;27;20478;-67
2021/12/31 03:16:19;;;;;;;51.38;24.25;;;;;;;;;;6372645;27;20047;-66
2021/12/31 03:19:23;;;;;;;41.58;23.05;;;;;;;;;;6372329;27;20047;-66
2021/12/31 03:22:29;;;;;;;41.08;22.65;;;;;;;;;;6353201;27;20047;-67
2021/12/31 03:25:33;;;;;;;39.40;22.98;;;;;;;;;;6353629;27;20043;-67
2021/12/31 03:28:36;;;;;;;32.13;18.60;;;;;;;;;;6354014;27;20176;-66
2021/12/31 03:31:39;;;;;;;33.35;19.17;;;;;;;;;;6371462;27;20043;-66
2021/12/31 03:34:41;;;;;;;34.10;18.80;;;;;;;;;;6371558;27;20054;-66
2021/12/31 03:37:46;;;;;;;25.02;13.23;;;;;;;;;;6372620;27;20047;-66
2021/12/31 03:40:49;;;;;;;23.20;13.45;;;;;;;;;;6353444;27;20043;-66
2021/12/31 03:43:55;;;;;;;23.92;12.70;;;;;;;;;;6352716;27;20047;-67
2021/12/31 03:46:58;;;;;;;21.58;12.05;;;;;;;;;;6371659;27;20047;-66
2021/12/31 03:50:01;;;;;;;20.30;11.93;;;;;;;;;;6371729;27;20481;-67
2021/12/31 03:53:05;;;;;;;21.80;12.45;;;;;;;;;;6352476;27;20503;-67
2021/12/31 03:56:08;;;;;;;21.38;11.20;;;;;;;;;;6371552;27;20046;-67
2021/12/31 03:59:11;;;;;;;20.20;11.88;;;;;;;;;;6353418;27;20428;-67
2021/12/31 04:02:14;;;;;;;20.67;11.00;;;;;;;;;;6352517;27;20095;-67
2021/12/31 04:05:19;;;;;;;21.98;11.98;;;;;;;;;;6352350;27;20051;-67
2021/12/31 04:08:23;;;;;;;22.38;12.32;;;;;;;;;;6353079;27;20051;-66
2021/12/31 04:11:26;;;;;;;21.02;11.85;;;;;;;;;;6371161;27;20051;-66
2021/12/31 04:14:32;;;;;;;22.40;12.05;;;;;;;;;;6352423;27;20051;-66
2021/12/31 04:17:34;;;;;;;22.38;11.63;;;;;;;;;;6370984;27;20054;-66
2021/12/31 04:20:41;;;;;;;21.83;12.43;;;;;;;;;;6371285;27;20054;-66
2021/12/31 04:23:51;;;;;;;20.98;11.82;;;;;;;;;;6370058;27;20123;-66
2021/12/31 04:26:54;;;;;;;21.42;11.80;;;;;;;;;;6370149;27;20047;-67
2021/12/31 04:29:57;;;;;;;22.02;12.52;;;;;;;;;;6370935;27;20070;-66
2021/12/31 04:33:01;;;;;;;21.58;12.35;;;;;;;;;;6352284;27;20059;-67
2021/12/31 04:36:06;;;;;;;25.63;12.80;;;;;;;;;;6352297;27;20129;-67
2021/12/31 04:39:13;;;;;;;25.88;13.30;;;;;;;;;;6371466;27;20113;-67
2021/12/31 04:42:18;;;;;;;25.83;13.30;;;;;;;;;;6352199;27;20070;-67
2021/12/31 04:45:21;;;;;;;19.35;11.80;;;;;;;;;;6369736;27;20421;-67
2021/12/31 04:48:24;;;;;;;17.30;10.82;;;;;;;;;;6351225;27;20039;-67
2021/12/31 04:51:27;;;;;;;22.73;12.52;;;;;;;;;;6370531;27;20590;-67
2021/12/31 04:54:32;;;;;;;18.65;10.95;;;;;;;;;;6369927;27;20088;-66
2021/12/31 04:57:35;;;;;;;24.70;12.90;;;;;;;;;;6369132;27;20046;-67
2021/12/31 05:00:38;;;;;;;18.45;10.95;;;;;;;;;;6370046;27;20046;-67
2021/12/31 05:03:41;;;;;;;26.08;13.02;;;;;;;;;;6370173;27;20052;-67
2021/12/31 05:06:45;;;;;;;21.48;11.23;;;;;;;;;;6369079;27;20047;-67
2021/12/31 05:09:51;;;;;;;20.60;11.77;;;;;;;;;;6350901;27;20047;-67
2021/12/31 05:12:57;;;;;;;20.90;12.05;;;;;;;;;;6351618;27;20047;-67
2021/12/31 05:16:03;;;;;;;27.15;11.88;;;;;;;;;;6369460;27;20047;-67
2021/12/31 05:19:06;;;;;;;23.75;13.48;;;;;;;;;;6368840;27;20129;-67
2021/12/31 05:22:09;;;;;;;23.63;12.13;;;;;;;;;;6351169;27;20405;-67
2021/12/31 05:25:13;;;;;;;21.50;11.60;;;;;;;;;;6351151;27;20047;-67
2021/12/31 05:28:19;;;;;;;24.15;13.00;;;;;;;;;;6368599;27;20047;-67
2021/12/31 05:31:24;;;;;;;23.33;12.10;;;;;;;;;;6350467;27;20127;-67
2021/12/31 05:34:28;;;;;;;24.30;12.38;;;;;;;;;;6350393;27;20062;-67
2021/12/31 05:37:31;;;;;;;21.33;12.68;;;;;;;;;;6350251;27;20043;-67
2021/12/31 05:40:35;;;;;;;31.20;14.23;;;;;;;;;;6349854;27;20047;-67
2021/12/31 05:43:39;;;;;;;22.75;12.18;;;;;;;;;;6368776;27;20176;-66
2021/12/31 05:46:45;;;;;;;21.45;12.13;;;;;;;;;;6369180;27;20371;-66
2021/12/31 05:49:48;;;;;;;21.52;14.02;;;;;;;;;;6367995;27;20073;-66
2021/12/31 05:52:51;;;;;;;26.15;13.60;;;;;;;;;;6350010;27;20051;-67
2021/12/31 05:55:56;;;;;;;23.55;12.98;;;;;;;;;;6368844;27;20070;-67
2021/12/31 05:58:59;;;;;;;20.95;12.38;;;;;;;;;;6349660;27;20039;-67
2021/12/31 06:02:01;;;;;;;22.15;11.82;;;;;;;;;;6367949;27;20490;-67
2021/12/31 06:05:05;;;;;;;20.85;11.57;;;;;;;;;;6368641;27;20513;-67
2021/12/31 06:08:08;;;;;;;21.00;12.27;;;;;;;;;;6368321;27;20404;-66
2021/12/31 06:11:12;;;;;;;22.20;13.98;;;;;;;;;;6349145;27;20043;-66
2021/12/31 06:14:15;;;;;;;24.83;14.18;;;;;;;;;;6368556;27;20094;-66
2021/12/31 06:17:23;;;;;;;23.02;14.00;;;;;;;;;;6350135;27;20508;-66
2021/12/31 06:20:28;;;;;;;17.65;11.80;;;;;;;;;;6349130;27;20087;-67
2021/12/31 06:23:31;;;;;;;19.05;9.65;;;;;;;;;;6367650;27;20054;-67
2021/12/31 06:26:56;;;;;;;16.73;10.15;;;;;;;;;;6368112;27;20176;-67
2021/12/31 06:30:01;;;;;;;10.05;6.93;;;;;;;;;;6349697;27;20047;-66
2021/12/31 06:33:04;;;;;;;9.95;6.60;;;;;;;;;;6367217;27;20507;-67
2021/12/31 06:36:07;;;;;;;11.18;7.50;;;;;;;;;;6349203;27;20047;-66
2021/12/31 06:39:10;;;;;;;9.05;6.13;;;;;;;;;;6349770;27;20043;-66
2021/12/31 06:42:16;;;;;;;13.02;5.20;;;;;;;;;;6348592;28;20051;-66
2021/12/31 06:45:19;;;;;;;8.80;4.63;;;;;;;;;;6370815;27;20443;-68
2021/12/31 06:48:23;;;;;;;7.93;4.80;;;;;;;;;;6376441;27;20060;-67
2021/12/31 06:51:25;;;;;;;6.18;4.10;;;;;;;;;;6376634;27;20122;-68
2021/12/31 06:54:28;;;;;;;6.93;4.20;;;;;;;;;;6375580;27;20039;-68
2021/12/31 06:57:33;;;;;;;5.65;3.88;;;;;;;;;;6375995;27;20058;-67
2021/12/31 07:00:36;;;;;;;5.88;4.15;;;;;;;;;;6376397;27;20126;-67
2021/12/31 07:03:40;;;;;;;7.15;4.10;;;;;;;;;;6356912;27;20046;-67
2021/12/31 07:06:45;;;;;;;6.28;3.78;;;;;;;;;;6357400;27;20051;-67
2021/12/31 07:09:48;;;;;;;7.28;4.20;;;;;;;;;;6357730;27;20125;-67
2021/12/31 07:12:57;;;;;;;8.23;4.10;;;;;;;;;;6357408;27;20043;-67
2021/12/31 07:16:03;;;;;;;6.85;3.90;;;;;;;;;;6391156;27;20477;-68
2021/12/31 07:19:06;;;;;;;7.80;4.88;;;;;;;;;;6375797;27;20047;-68
2021/12/31 07:22:09;;;;;;;7.43;4.28;;;;;;;;;;6376242;27;20485;-68
2021/12/31 07:25:12;;;;;;;7.82;4.82;;;;;;;;;;6375021;27;20043;-67
2021/12/31 07:28:17;;;;;;;6.85;4.43;;;;;;;;;;6356801;27;20130;-68
2021/12/31 07:31:20;;;;;;;8.27;5.10;;;;;;;;;;6357671;27;20092;-68
2021/12/31 07:34:23;;;;;;;9.32;5.60;;;;;;;;;;6375465;27;20227;-68
2021/12/31 07:37:29;;;;;;;9.77;4.80;;;;;;;;;;6357034;27;20055;-68
2021/12/31 07:40:37;;;;;;;9.98;5.53;;;;;;;;;;6357151;27;20042;-68
2021/12/31 07:43:44;;;;;;;7.47;4.55;;;;;;;;;;6375757;27;20051;-67
2021/12/31 07:46:47;;;;;;;6.68;4.43;;;;;;;;;;6374704;27;20057;-67
2021/12/31 07:49:52;;;;;;;7.88;4.43;;;;;;;;;;6356599;27;20047;-67
2021/12/31 07:52:59;;;;;;;7.93;4.35;;;;;;;;;;6357404;27;20061;-67
2021/12/31 07:56:02;;;;;;;6.80;4.25;;;;;;;;;;6374361;27;20054;-67
2021/12/31 07:59:06;;;;;;;7.70;4.88;;;;;;;;;;6370567;27;20563;-67
2021/12/31 08:02:11;;;;;;;9.95;5.35;;;;;;;;;;6352960;27;20043;-68
2021/12/31 08:05:16;;;;;;;9.70;5.20;;;;;;;;;;6353146;27;20047;-67
2021/12/31 08:08:20;;;;;;;8.30;4.75;;;;;;;;;;6351934;27;20046;-67
2021/12/31 08:11:22;;;;;;;8.50;5.40;;;;;;;;;;6352338;27;20176;-67
2021/12/31 08:14:29;;;;;;;11.32;6.90;;;;;;;;;;6353061;27;20473;-68
2021/12/31 08:17:32;;;;;;;8.63;6.00;;;;;;;;;;6370601;27;20143;-67
2021/12/31 08:20:36;;;;;;;12.27;6.43;;;;;;;;;;6370327;27;20047;-67
2021/12/31 08:23:39;;;;;;;6.47;4.40;;;;;;;;;;6352602;27;20430;-68
2021/12/31 08:26:44;;;;;;;7.90;4.68;;;;;;;;;;6352896;27;20050;-67
2021/12/31 08:29:49;;;;;;;5.90;4.13;;;;;;;;;;6351306;27;20054;-67
2021/12/31 08:32:54;;;;;;;6.43;3.97;;;;;;;;;;6351967;27;20043;-67
2021/12/31 08:35:59;;;;;;;5.15;3.17;;;;;;;;;;6352580;27;20058;-67
2021/12/31 08:39:03;;;;;;;5.30;2.90;;;;;;;;;;6351434;27;20043;-67
2021/12/31 08:42:06;;;;;;;3.15;2.13;;;;;;;;;;6369597;27;20157;-67
2021/12/31 08:45:10;;;;;;;2.95;2.03;;;;;;;;;;6370512;27;20047;-67
2021/12/31 08:48:13;;;;;;;2.65;1.90;;;;;;;;;;6351905;27;20050;-67
2021/12/31 08:51:19;;;;;;;3.00;2.10;;;;;;;;;;6350994;27;20053;-67
2021/12/31 08:54:26;;;;;;;3.35;2.10;;;;;;;;;;6370034;27;20050;-67
2021/12/31 08:57:30;;;;;;;2.28;1.80;;;;;;;;;;6351912;27;20054;-67
2021/12/31 09:00:36;;;;;;;3.53;1.75;;;;;;;;;;6350821;27;20039;-67
2021/12/31 09:03:39;;;;;;;2.83;2.03;;;;;;;;;;6369451;27;20513;-67
2021/12/31 09:06:41;;;;;;;3.25;1.80;;;;;;;;;;6351564;27;20493;-67
2021/12/31 09:09:44;;;;;;;2.22;1.77;;;;;;;;;;6349966;27;20043;-67
2021/12/31 09:12:47;;;;;;;2.47;2.28;;;;;;;;;;6350318;27;20086;-67
2021/12/31 09:15:52;;;;;;;2.63;2.10;;;;;;;;;;6351167;27;20413;-67
2021/12/31 09:18:55;;;;;;;5.50;2.60;;;;;;;;;;6351348;27;20445;-67
2021/12/31 09:21:58;;;;;;;3.88;1.95;;;;;;;;;;6350804;27;20045;-67
2021/12/31 09:25:01;;;;;;;3.53;2.05;;;;;;;;;;6350553;27;20051;-67
2021/12/31 09:28:09;;;;;;;2.50;1.67;;;;;;;;;;6369483;27;20138;-67
2021/12/31 09:31:15;;;;;;;2.72;1.85;;;;;;;;;;6350566;27;20054;-67
2021/12/31 09:34:19;;;;;;;2.28;1.75;;;;;;;;;;6350059;27;20070;-67
2021/12/31 09:37:22;;;;;;;2.60;1.95;;;;;;;;;;6369141;27;20050;-67
2021/12/31 09:40:25;;;;;;;1.92;1.42;;;;;;;;;;6369119;27;20111;-67
2021/12/31 09:43:28;;;;;;;2.58;1.55;;;;;;;;;;6349669;27;20058;-67
2021/12/31 09:46:33;;;;;;;1.15;1.05;;;;;;;;;;6368749;27;20047;-67
2021/12/31 09:49:36;;;;;;;1.67;1.20;;;;;;;;;;6350577;27;20502;-67
2021/12/31 09:52:39;;;;;;;3.97;1.40;;;;;;;;;;6368214;27;20283;-67
2021/12/31 09:55:45;;;;;;;1.85;1.20;;;;;;;;;;6368082;27;20092;-68
2021/12/31 09:58:49;;;;;;;2.00;1.27;;;;;;;;;;6368715;27;20047;-68
2021/12/31 10:01:53;;;;;;;3.08;1.13;;;;;;;;;;6350232;27;20047;-67
2021/12/31 10:04:57;;;;;;;1.45;1.10;;;;;;;;;;6349215;27;20261;-68
2021/12/31 10:08:00;;;;;;;2.55;1.10;;;;;;;;;;6349820;27;20043;-67
2021/12/31 10:11:04;;;;;;;1.60;1.20;;;;;;;;;;6350144;27;20492;-68
2021/12/31 10:14:07;;;;;;;10.02;6.50;;;;;;;;;;6367600;27;20143;-67
2021/12/31 10:17:11;;;;;;;4.70;2.70;;;;;;;;;;6367581;27;20148;-69
2021/12/31 10:20:15;;;;;;;1.70;1.13;;;;;;;;;;6367800;27;20192;-68
2021/12/31 10:23:19;;;;;;;1.23;0.90;;;;;;;;;;6367986;27;20069;-69
2021/12/31 10:26:22;;;;;;;1.45;1.15;;;;;;;;;;6348719;27;20039;-68
2021/12/31 10:29:27;;;;;;;1.20;1.10;;;;;;;;;;6349412;27;20504;-67
2021/12/31 10:32:33;;;;;;;1.77;1.40;;;;;;;;;;6349706;27;20039;-68
2021/12/31 10:35:40;;;;;;;2.30;1.10;;;;;;;;;;6366969;27;20043;-68
2021/12/31 11:29:38;;;;;;;4.32;2.13;;;;;;;;;;6321698;28;20515;-66
2021/12/31 11:32:54;;;;;;;2.20;2.00;;;;;;;;;;6351612;27;20035;-66
2021/12/31 11:35:59;;;;;;;3.85;2.63;;;;;;;;;;6371141;27;20047;-67
2021/12/31 11:39:13;;;;;;;3.40;2.58;;;;;;;;;;6371735;27;20089;-67
2021/12/31 11:42:24;;;;;;;5.28;2.50;;;;;;;;;;6353777;27;20043;-66
2021/12/31 11:45:29;;;;;;;3.53;2.15;;;;;;;;;;6371798;27;20108;-67
2021/12/31 11:48:52;;;;;;;3.95;2.50;;;;;;;;;;6352271;27;20047;-68
2021/12/31 11:52:02;;;;;;;4.55;2.33;;;;;;;;;;6353015;27;20500;-66
2021/12/31 11:55:17;;;;;;;18.05;12.57;;;;;;;;;;6353829;27;20413;-66
2021/12/31 11:58:36;;;;;;;5.07;2.65;;;;;;;;;;6352986;27;20043;-66
2021/12/31 12:01:41;;;;;;;4.63;2.08;;;;;;;;;;6335405;27;20150;-65
2021/12/31 12:04:45;;;;;;;2.58;2.20;;;;;;;;;;6353135;27;20047;-65
2021/12/31 12:07:49;;;;;;;2.30;1.67;;;;;;;;;;6371981;27;20053;-66
2021/12/31 12:10:53;;;;;;;3.15;1.60;;;;;;;;;;6351909;27;20427;-65
2021/12/31 12:14:11;;;;;;;2.97;1.85;;;;;;;;;;6352084;27;20054;-66
2021/12/31 12:17:16;;;;;;;2.85;1.83;;;;;;;;;;6352579;27;20112;-64
2021/12/31 12:20:20;;;;;;;2.33;1.58;;;;;;;;;;6371118;27;20514;-64
2021/12/31 12:23:26;;;;;;;2.17;1.45;;;;;;;;;;6369916;27;20050;-64
2021/12/31 12:26:29;;;;;;;1.70;1.33;;;;;;;;;;6370528;27;20147;-61
2021/12/31 12:38:25;;;;;;;2.40;1.60;;;;;;;;;;6270322;28;20144;-67
2021/12/31 12:41:28;;;;;;;3.13;1.67;;;;;;;;;;6253525;28;20052;-67
2021/12/31 12:44:31;;;;;;;2.83;1.63;;;;;;;;;;6270423;28;20059;-69
2021/12/31 12:47:35;;;;;;;2.97;1.60;;;;;;;;;;6253134;28;20041;-69
2021/12/31 12:50:38;;;;;;;2.63;1.63;;;;;;;;;;6252663;28;20441;-69
2021/12/31 12:53:44;;;;;;;3.90;1.73;;;;;;;;;;6270965;28;20398;-69
2021/12/31 12:56:47;;;;;;;2.15;1.60;;;;;;;;;;6253045;28;20128;-69
2021/12/31 12:59:52;;;;;;;4.45;1.85;;;;;;;;;;6252444;28;20048;-69
2021/12/31 13:03:03;;;;;;;4.03;2.03;;;;;;;;;;6270954;28;20051;-70
2021/12/31 13:06:10;;;;;;;3.92;2.25;;;;;;;;;;6270383;28;20045;-71
2021/12/31 13:09:15;;;;;;;4.75;2.30;;;;;;;;;;6270431;28;20416;-67
2021/12/31 13:12:21;;;;;;;4.57;2.10;;;;;;;;;;6270186;28;20053;-70
2021/12/31 13:15:24;;;;;;;3.97;2.38;;;;;;;;;;6252652;28;20143;-68
2021/12/31 13:18:33;;;;;;;4.00;2.20;;;;;;;;;;6270059;28;20057;-67
2021/12/31 13:21:36;;;;;;;4.25;2.10;;;;;;;;;;6270079;28;20075;-68
2021/12/31 13:24:41;;;;;;;5.00;2.63;;;;;;;;;;6270351;28;20052;-69
2021/12/31 13:27:43;;;;;;;4.10;2.20;;;;;;;;;;6251869;28;20489;-69
2021/12/31 13:30:48;;;;;;;30.65;18.55;;;;;;;;;;6252045;28;20053;-69
2021/12/31 13:33:54;;;;;;;16.48;7.53;;;;;;;;;;6269679;28;20063;-69
2021/12/31 13:36:57;;;;;;;7.03;2.67;;;;;;;;;;6252002;28;20235;-69
2021/12/31 13:40:14;;;;;;;4.57;2.15;;;;;;;;;;6269508;28;20055;-66
2021/12/31 13:43:25;;;;;;;5.90;2.60;;;;;;;;;;6269621;28;20491;-67
2021/12/31 13:46:28;;;;;;;3.58;1.95;;;;;;;;;;6270120;28;20053;-67
2021/12/31 13:49:37;;;;;;;3.20;2.13;;;;;;;;;;6269199;28;20037;-67
2021/12/31 13:52:47;;;;;;;3.53;2.47;;;;;;;;;;6269722;28;20060;-67
2021/12/31 13:55:53;;;;;;;2.53;2.33;;;;;;;;;;6268611;28;20047;-67
2021/12/31 13:58:59;;;;;;;5.38;2.08;;;;;;;;;;6269434;28;20100;-67
2021/12/31 14:02:03;;;;;;;7.80;2.15;;;;;;;;;;6268889;28;20067;-67
2021/12/31 14:05:10;;;;;;;6.15;2.22;;;;;;;;;;6269034;28;20056;-67
2021/12/31 14:08:29;;;;;;;3.65;2.15;;;;;;;;;;6269278;28;20044;-67
2021/12/31 14:11:33;;;;;;;4.25;2.08;;;;;;;;;;6268773;28;20051;-67
2021/12/31 14:14:36;;;;;;;4.10;2.17;;;;;;;;;;6251269;28;20049;-67
2021/12/31 14:17:42;;;;;;;3.15;2.58;;;;;;;;;;6250786;28;20056;-67
2021/12/31 14:20:45;;;;;;;5.35;2.50;;;;;;;;;;6250922;28;20045;-67
2021/12/31 14:23:49;;;;;;;12.65;2.33;;;;;;;;;;6267952;28;20067;-67
2021/12/31 14:26:55;;;;;;;2.63;1.90;;;;;;;;;;6268257;28;20517;-67
2021/12/31 14:29:58;;;;;;;4.22;2.42;;;;;;;;;;6268808;28;20045;-67
2021/12/31 14:33:01;;;;;;;6.93;2.42;;;;;;;;;;6268540;28;20049;-67
2021/12/31 14:36:06;;;;;;;4.35;2.60;;;;;;;;;;6268330;28;20072;-65
2021/12/31 14:39:14;;;;;;;2.60;2.03;;;;;;;;;;6249316;28;20065;-67
2021/12/31 14:42:21;;;;;;;6.22;2.30;;;;;;;;;;6249896;28;20114;-67
2021/12/31 14:45:24;;;;;;;;;;;;;;;;;;6249868;28;20049;-67
2021/12/31 14:48:30;;;;;;;4.68;2.47;;;;;;;;;;6266734;28;19920;-66
2021/12/31 14:51:35;;;;;;;;;;;;;;;;;;6268007;28;20041;-67
2021/12/31 14:54:38;;;;;;;7.53;2.45;;;;;;;;;;6267369;28;20023;-67
2021/12/31 14:57:44;;;;;;;4.22;2.40;;;;;;;;;;6267261;28;20072;-67
2021/12/31 15:00:47;;;;;;;7.00;2.78;;;;;;;;;;6249002;28;20044;-67
2021/12/31 15:03:52;;;;;;;7.10;2.90;;;;;;;;;;6267490;28;20394;-68
2021/12/31 15:06:55;;;;;;;4.25;2.58;;;;;;;;;;6251884;28;20036;-65
2021/12/31 15:09:58;;;;;;;4.82;2.83;;;;;;;;;;6253747;28;20099;-66
2021/12/31 15:13:02;;;;;;;8.18;2.90;;;;;;;;;;6271632;28;20041;-65
2021/12/31 15:16:06;;;;;;;4.70;3.00;;;;;;;;;;6271499;28;20045;-67
2021/12/31 15:19:08;;;;;;;5.72;2.67;;;;;;;;;;6253244;28;20094;-66
2021/12/31 15:22:11;;;;;;;7.93;2.53;;;;;;;;;;6271600;28;20041;-67
2021/12/31 15:25:15;;;;;;;7.07;2.80;;;;;;;;;;6271811;28;20041;-67
2021/12/31 15:28:19;;;;;;;4.88;2.55;;;;;;;;;;6271424;28;20060;-65
2021/12/31 15:31:22;;;;;;;6.35;2.78;;;;;;;;;;6270961;28;20060;-66
2021/12/31 15:34:25;;;;;;;7.72;3.30;;;;;;;;;;6271733;28;20079;-66
2021/12/31 15:37:31;;;;;;;4.60;2.40;;;;;;;;;;6253323;28;20526;-66
2021/12/31 15:40:35;;;;;;;8.50;2.88;;;;;;;;;;6270572;28;20049;-65
2021/12/31 15:43:42;;;;;;;7.55;2.33;;;;;;;;;;6253583;28;20045;-65
2021/12/31 15:46:45;;;;;;;8.95;4.05;;;;;;;;;;6254099;28;20098;-66
2021/12/31 15:49:50;;;;;;;;;;;;;;;;;;6271149;28;20044;-64
2021/12/31 15:52:53;;;;;;;5.18;2.88;;;;;;;;;;6270478;28;19978;-65
2021/12/31 15:55:59;;;;;;;4.05;2.60;;;;;;;;;;6270879;28;20053;-65
2021/12/31 15:59:03;;;;;;;5.97;2.50;;;;;;;;;;6252539;28;20049;-68
2021/12/31 16:02:06;;;;;;;6.25;2.85;;;;;;;;;;6251460;28;20522;-64
2021/12/31 16:05:10;;;;;;;6.00;2.60;;;;;;;;;;6270808;28;20101;-65
2021/12/31 16:08:13;;;;;;;7.07;2.78;;;;;;;;;;6252591;28;20049;-65
2021/12/31 16:11:16;;;;;;;5.43;2.55;;;;;;;;;;6249080;28;20426;-66
2021/12/31 16:14:20;;;;;;;7.80;2.70;;;;;;;;;;6253911;28;20123;-67
2021/12/31 16:17:23;;;;;;;4.65;2.65;;;;;;;;;;6241918;28;20099;-65
2021/12/31 16:20:26;;;;;;;6.43;2.70;;;;;;;;;;6242806;28;20038;-65
2021/12/31 16:23:29;;;;;;;7.25;3.28;;;;;;;;;;6240443;28;20399;-65
2021/12/31 16:26:32;;;;;;;318.27;250.35;;;;;;;;;;6241084;28;20148;-65
2021/12/31 16:29:49;;;;;;;23.42;14.05;;;;;;;;;;6240302;28;20057;-66
2021/12/31 16:32:53;;;;;;;6.20;4.15;;;;;;;;;;6239062;28;20049;-66
2021/12/31 16:36:00;;;;;;;;;;;;;;;;;;6239362;28;20045;-67
2021/12/31 16:39:05;;;;;;;11.52;3.25;;;;;;;;;;6243099;28;19927;-66
2021/12/31 16:42:09;;;;;;;6.45;3.30;;;;;;;;;;6248616;28;20045;-67
2021/12/31 16:45:14;;;;;;;6.63;3.03;;;;;;;;;;6242782;28;20045;-65
2021/12/31 16:48:20;;;;;;;6.28;3.45;;;;;;;;;;6244189;28;20041;-65
2021/12/31 16:51:23;;;;;;;5.43;3.15;;;;;;;;;;6243446;28;20045;-66
2021/12/31 16:54:26;;;;;;;8.73;3.97;;;;;;;;;;6243026;28;20045;-65
2021/12/31 16:57:29;;;;;;;5.80;3.33;;;;;;;;;;6243901;28;20049;-65
2021/12/31 17:00:35;;;;;;;6.35;3.67;;;;;;;;;;6244896;28;20055;-65
2021/12/31 17:03:39;;;;;;;8.55;3.47;;;;;;;;;;6244489;28;20041;-66
2021/12/31 17:06:42;;;;;;;6.38;3.92;;;;;;;;;;6242641;28;20480;-67
2021/12/31 17:09:47;;;;;;;6.93;4.13;;;;;;;;;;6244370;28;20049;-66
2021/12/31 17:12:50;;;;;;;8.18;4.07;;;;;;;;;;6244135;28;20458;-66
2021/12/31 17:15:54;;;;;;;5.47;3.50;;;;;;;;;;6242365;28;20045;-66
2021/12/31 17:18:57;;;;;;;6.88;4.15;;;;;;;;;;6244385;28;20491;-66
2021/12/31 17:22:00;;;;;;;6.40;3.95;;;;;;;;;;6242825;28;20045;-66
2021/12/31 17:25:04;;;;;;;6.63;4.03;;;;;;;;;;6243783;28;20057;-65
2021/12/31 17:28:07;;;;;;;9.15;4.50;;;;;;;;;;6243492;28;20511;-66
2021/12/31 17:31:11;;;;;;;9.07;5.05;;;;;;;;;;6243054;28;20049;-66
2021/12/31 17:34:14;;;;;;;8.88;4.82;;;;;;;;;;6243710;28;20542;-67
2021/12/31 17:37:38;;;;;;;7.60;4.40;;;;;;;;;;6241677;28;20060;-66
2021/12/31 17:40:41;;;;;;;7.65;4.88;;;;;;;;;;6243958;28;20462;-67
2021/12/31 17:43:44;;;;;;;6.70;4.35;;;;;;;;;;6243773;28;20045;-66
2021/12/31 17:46:48;;;;;;;8.27;5.10;;;;;;;;;;6241928;28;20053;-66
2021/12/31 17:49:51;;;;;;;7.07;4.65;;;;;;;;;;6241731;28;20050;-67
2021/12/31 17:52:54;;;;;;;7.30;5.03;;;;;;;;;;6243678;28;20267;-67
2021/12/31 17:55:59;;;;;;;8.73;5.20;;;;;;;;;;6242145;28;20042;-66
2021/12/31 17:59:04;;;;;;;8.93;5.20;;;;;;;;;;6241323;28;20049;-66
2021/12/31 18:02:09;;;;;;;9.30;5.25;;;;;;;;;;6243434;28;20052;-67
2021/12/31 18:05:12;;;;;;;8.80;5.22;;;;;;;;;;6243062;28;20049;-67
2021/12/31 18:08:15;;;;;;;12.18;5.95;;;;;;;;;;6242736;28;20060;-66
2021/12/31 18:11:18;;;;;;;14.35;6.63;;;;;;;;;;6241549;28;20052;-67
2021/12/31 18:14:24;;;;;;;18.30;8.77;;;;;;;;;;6243354;28;20437;-66
2021/12/31 18:17:28;;;;;;;16.63;9.25;;;;;;;;;;6241456;28;20053;-66
2021/12/31 18:20:34;;;;;;;15.43;7.80;;;;;;;;;;6242184;28;20049;-66
2021/12/31 18:23:37;;;;;;;16.17;8.10;;;;;;;;;;6243238;28;20275;-66
2021/12/31 18:26:40;;;;;;;15.85;8.77;;;;;;;;;;6242577;28;20455;-65
2021/12/31 18:29:46;;;;;;;14.38;8.52;;;;;;;;;;6242025;28;20052;-65
2021/12/31 18:32:51;;;;;;;19.05;9.15;;;;;;;;;;6241182;28;20084;-66
2021/12/31 18:35:54;;;;;;;15.27;9.48;;;;;;;;;;6242835;28;20045;-66
2021/12/31 18:38:59;;;;;;;13.40;8.15;;;;;;;;;;6242379;28;20041;-66
2021/12/31 18:42:02;;;;;;;16.90;8.48;;;;;;;;;;6240577;28;20064;-67
2021/12/31 18:45:05;;;;;;;14.20;8.30;;;;;;;;;;6241593;28;20045;-66
2021/12/31 18:48:11;;;;;;;17.27;9.88;;;;;;;;;;6242264;28;20045;-67
2021/12/31 18:51:14;;;;;;;16.58;8.95;;;;;;;;;;6240426;28;20041;-66
2021/12/31 18:54:17;;;;;;;17.33;8.77;;;;;;;;;;6242913;28;20088;-66
2021/12/31 18:57:23;;;;;;;14.10;8.82;;;;;;;;;;6241039;28;20487;-66
2021/12/31 19:00:29;;;;;;;13.77;9.10;;;;;;;;;;6241971;28;20385;-66
2021/12/31 19:03:33;;;;;;;14.70;9.07;;;;;;;;;;6240457;28;20060;-66
2021/12/31 19:06:37;;;;;;;15.02;9.57;;;;;;;;;;6241316;28;20042;-66
2021/12/31 19:09:40;;;;;;;18.27;11.65;;;;;;;;;;6242142;28;20045;-65
2021/12/31 19:12:43;;;;;;;20.15;12.02;;;;;;;;;;6241408;28;20486;-67
2021/12/31 19:15:46;;;;;;;21.65;12.73;;;;;;;;;;6242443;28;20399;-67
2021/12/31 19:18:54;;;;;;;18.92;12.48;;;;;;;;;;6242323;28;20049;-66